createdAt,value
2018-12-05T00:01:26.773Z,90.50
2018-12-05T00:03:55.200Z,90.50
2018-12-05T00:06:23.574Z,90.50
2018-12-05T00:08:52.104Z,90.60
2018-12-05T00:11:20.555Z,90.60
2018-12-05T00:13:49.043Z,90.70
2018-12-05T00:16:17.459Z,91.00
2018-12-05T00:18:45.876Z,90.80
2018-12-05T00:21:14.250Z,90.80
2018-12-05T00:23:42.658Z,90.80
2018-12-05T00:26:11.290Z,90.80
2018-12-05T00:28:40.027Z,90.80
2018-12-05T00:31:08.512Z,90.80
2018-12-05T00:33:38.110Z,90.70
2018-12-05T00:36:06.561Z,90.90
2018-12-05T00:38:34.987Z,90.90
2018-12-05T00:41:03.682Z,90.90
2018-12-05T00:43:32.112Z,90.90
2018-12-05T00:46:00.923Z,90.90
2018-12-05T00:48:29.326Z,91.00
2018-12-05T00:50:57.722Z,90.70
2018-12-05T00:53:26.275Z,90.90
2018-12-05T00:55:55.210Z,91.00
2018-12-05T00:58:23.609Z,91.00
2018-12-05T01:00:52.069Z,91.10
2018-12-05T01:03:20.520Z,91.10
2018-12-05T01:05:48.917Z,91.10
2018-12-05T01:08:17.333Z,91.10
2018-12-05T01:10:45.840Z,91.10
2018-12-05T01:13:14.296Z,91.10
2018-12-05T01:15:42.694Z,91.10
2018-12-05T01:18:11.183Z,91.10
2018-12-05T01:20:39.637Z,91.10
2018-12-05T01:23:08.052Z,91.10
2018-12-05T01:25:36.513Z,91.10
2018-12-05T01:28:05.225Z,91.20
2018-12-05T01:30:33.618Z,91.20
2018-12-05T01:33:02.011Z,91.20
2018-12-05T01:35:30.564Z,91.20
2018-12-05T01:37:58.989Z,91.20
2018-12-05T01:40:27.375Z,91.30
2018-12-05T01:42:55.791Z,91.30
2018-12-05T01:45:24.215Z,91.30
2018-12-05T01:47:52.653Z,91.40
2018-12-05T01:50:21.064Z,91.40
2018-12-05T01:52:49.442Z,91.50
2018-12-05T01:55:18.270Z,91.50
2018-12-05T01:57:46.874Z,91.50
2018-12-05T02:00:15.376Z,91.50
2018-12-05T02:02:43.766Z,91.60
2018-12-05T02:05:13.286Z,91.70
2018-12-05T02:07:41.713Z,91.70
2018-12-05T02:10:10.153Z,91.70
2018-12-05T02:12:38.921Z,91.70
2018-12-05T02:15:07.422Z,91.80
2018-12-05T02:17:35.811Z,91.80
2018-12-05T02:20:05.266Z,91.90
2018-12-05T02:22:33.960Z,91.90
2018-12-05T02:25:03.193Z,92.00
2018-12-05T02:27:31.600Z,92.00
2018-12-05T02:30:00.008Z,92.00
2018-12-05T02:32:28.649Z,92.10
2018-12-05T02:34:57.047Z,92.10
2018-12-05T02:37:25.440Z,92.10
2018-12-05T02:39:54.549Z,92.10
2018-12-05T02:42:23.020Z,92.20
2018-12-05T02:44:52.007Z,92.20
2018-12-05T02:47:20.497Z,92.30
2018-12-05T02:49:48.971Z,92.30
2018-12-05T02:52:17.371Z,92.30
2018-12-05T02:54:45.821Z,92.30
2018-12-05T02:57:14.215Z,92.40
2018-12-05T02:59:42.698Z,92.40
2018-12-05T03:02:12.024Z,92.50
2018-12-05T03:04:40.489Z,92.60
2018-12-05T03:07:08.885Z,92.40
2018-12-05T03:09:37.300Z,92.50
2018-12-05T03:12:05.883Z,92.50
2018-12-05T03:14:34.288Z,92.50
2018-12-05T03:17:02.754Z,92.50
2018-12-05T03:19:31.361Z,92.50
2018-12-05T03:21:59.851Z,92.50
2018-12-05T03:24:28.258Z,92.60
2018-12-05T03:26:56.670Z,92.60
2018-12-05T03:29:25.062Z,92.50
2018-12-05T03:31:53.464Z,92.50
2018-12-05T03:34:21.849Z,92.50
2018-12-05T03:36:50.241Z,92.50
2018-12-05T03:39:18.699Z,92.60
2018-12-05T03:41:47.113Z,92.60
2018-12-05T03:44:15.761Z,92.60
2018-12-05T03:46:44.987Z,92.60
2018-12-05T03:49:13.401Z,92.60
2018-12-05T03:51:41.795Z,92.60
2018-12-05T03:54:10.211Z,92.60
2018-12-05T03:56:38.787Z,92.70
2018-12-05T03:59:07.174Z,92.70
2018-12-05T04:01:35.965Z,93.00
2018-12-05T04:04:04.420Z,92.70
2018-12-05T04:06:32.913Z,93.10
2018-12-05T04:09:01.298Z,92.80
2018-12-05T04:11:29.705Z,92.90
2018-12-05T04:13:58.283Z,92.90
2018-12-05T04:16:26.864Z,92.90
2018-12-05T04:18:55.317Z,92.90
2018-12-05T04:21:23.934Z,92.90
2018-12-05T04:23:52.417Z,93.00
2018-12-05T04:26:20.880Z,93.00
2018-12-05T04:28:49.379Z,93.00
2018-12-05T04:31:17.766Z,93.10
2018-12-05T04:33:46.213Z,93.10
2018-12-05T04:36:14.697Z,93.10
2018-12-05T04:38:43.092Z,93.10
2018-12-05T04:41:11.550Z,93.20
2018-12-05T04:43:40.027Z,93.20
2018-12-05T04:46:08.427Z,93.20
2018-12-05T04:48:36.838Z,93.20
2018-12-05T04:51:05.235Z,93.30
2018-12-05T04:53:33.629Z,93.30
2018-12-05T04:56:02.153Z,93.30
2018-12-05T04:58:30.544Z,93.30
2018-12-05T05:00:58.989Z,93.30
2018-12-05T05:03:27.811Z,93.40
2018-12-05T05:05:56.297Z,93.40
2018-12-05T05:08:24.701Z,93.40
2018-12-05T05:10:53.108Z,93.40
2018-12-05T05:13:21.514Z,93.40
2018-12-05T05:15:49.969Z,93.40
2018-12-05T05:18:18.449Z,93.50
2018-12-05T05:20:46.852Z,93.50
2018-12-05T05:23:15.256Z,93.50
2018-12-05T05:25:43.670Z,93.50
2018-12-05T05:28:12.070Z,93.50
2018-12-05T05:30:40.565Z,93.50
2018-12-05T05:33:08.971Z,93.60
2018-12-05T05:35:37.348Z,93.60
2018-12-05T05:38:05.799Z,93.60
2018-12-05T05:40:34.196Z,93.70
2018-12-05T05:43:02.591Z,93.70
2018-12-05T05:45:31.031Z,93.60
2018-12-05T05:47:59.448Z,93.60
2018-12-05T05:50:27.848Z,93.70
2018-12-05T05:52:56.252Z,93.70
2018-12-05T05:55:24.638Z,93.70
2018-12-05T05:57:53.032Z,93.70
2018-12-05T06:00:21.503Z,93.70
2018-12-05T06:02:50.100Z,93.70
2018-12-05T06:05:18.566Z,93.70
2018-12-05T06:07:46.967Z,93.70
2018-12-05T06:10:15.424Z,93.70
2018-12-05T06:12:43.829Z,93.80
2018-12-05T06:15:12.227Z,94.20
2018-12-05T06:17:40.633Z,93.80
2018-12-05T06:20:09.055Z,93.80
2018-12-05T06:22:37.465Z,94.20
2018-12-05T06:25:06.308Z,93.80
2018-12-05T06:27:34.801Z,93.80
2018-12-05T06:30:03.673Z,93.80
2018-12-05T06:32:32.061Z,93.90
2018-12-05T06:35:00.479Z,93.90
2018-12-05T06:37:28.871Z,93.60
2018-12-05T06:39:57.261Z,93.90
2018-12-05T06:42:25.668Z,93.90
2018-12-05T06:44:54.313Z,93.90
2018-12-05T06:47:22.723Z,93.90
2018-12-05T06:49:51.155Z,94.00
2018-12-05T06:52:19.560Z,93.90
2018-12-05T06:54:47.977Z,93.90
2018-12-05T06:57:16.373Z,94.30
2018-12-05T06:59:44.965Z,94.30
2018-12-05T07:02:13.373Z,94.00
2018-12-05T07:04:42.223Z,94.00
2018-12-05T07:07:10.617Z,94.10
2018-12-05T07:09:39.026Z,94.10
2018-12-05T07:12:07.415Z,94.00
2018-12-05T07:14:35.869Z,94.00
2018-12-05T07:17:04.300Z,94.00
2018-12-05T07:19:32.720Z,94.00
2018-12-05T07:22:01.128Z,94.00
2018-12-05T07:24:29.532Z,94.00
2018-12-05T07:26:58.039Z,94.00
2018-12-05T07:29:26.656Z,94.00
2018-12-05T07:31:55.414Z,94.10
2018-12-05T07:34:24.818Z,94.10
2018-12-05T07:36:53.336Z,94.00
2018-12-05T07:39:21.746Z,94.00
2018-12-05T07:41:50.359Z,94.00
2018-12-05T07:44:18.748Z,94.00
2018-12-05T07:46:47.161Z,94.20
2018-12-05T07:49:15.603Z,94.00
2018-12-05T07:51:44.006Z,94.00
2018-12-05T07:54:12.392Z,94.00
2018-12-05T07:56:40.872Z,93.90
2018-12-05T07:59:09.302Z,94.00
2018-12-05T08:01:37.691Z,94.00
2018-12-05T08:04:06.097Z,93.90
2018-12-05T08:06:34.580Z,93.90
2018-12-05T08:09:02.981Z,93.80
2018-12-05T08:11:31.409Z,93.90
2018-12-05T08:13:59.820Z,93.80
2018-12-05T08:16:28.296Z,93.80
2018-12-05T08:18:56.686Z,93.80
2018-12-05T08:21:25.148Z,93.80
2018-12-05T08:23:53.830Z,93.70
2018-12-05T08:26:22.246Z,93.70
2018-12-05T08:28:50.768Z,93.70
2018-12-05T08:31:19.502Z,93.60
2018-12-05T08:33:48.176Z,93.60
2018-12-05T08:36:16.702Z,93.60
2018-12-05T08:38:45.222Z,93.60
2018-12-05T08:41:14.324Z,93.50
2018-12-05T08:43:44.434Z,93.50
2018-12-05T08:46:13.379Z,93.50
2018-12-05T08:48:41.830Z,93.40
2018-12-05T08:51:10.425Z,93.40
2018-12-05T08:53:38.952Z,93.40
2018-12-05T08:56:07.434Z,93.30
2018-12-05T08:58:35.978Z,93.30
2018-12-05T09:01:04.508Z,93.20
2018-12-05T09:03:32.906Z,93.20
2018-12-05T09:06:01.399Z,93.10
2018-12-05T09:08:29.945Z,93.00
2018-12-05T09:10:58.617Z,93.00
2018-12-05T09:13:27.004Z,93.00
2018-12-05T09:15:55.415Z,92.80
2018-12-05T09:18:23.907Z,92.80
2018-12-05T09:20:52.491Z,92.70
2018-12-05T09:23:20.884Z,92.70
2018-12-05T09:25:49.322Z,92.60
2018-12-05T09:28:17.775Z,92.50
2018-12-05T09:30:46.296Z,92.40
2018-12-05T09:33:14.711Z,92.40
2018-12-05T09:35:43.147Z,92.30
2018-12-05T09:38:11.623Z,92.20
2018-12-05T09:40:40.133Z,92.20
2018-12-05T09:43:08.532Z,92.00
2018-12-05T09:45:36.929Z,92.00
2018-12-05T09:48:05.345Z,92.20
2018-12-05T09:50:33.823Z,91.80
2018-12-05T09:53:02.225Z,91.70
2018-12-05T09:55:30.631Z,91.50
2018-12-05T09:57:59.087Z,91.30
2018-12-05T10:00:27.572Z,91.10
2018-12-05T10:02:55.969Z,91.00
2018-12-05T10:05:24.437Z,90.80
2018-12-05T10:07:53.365Z,90.60
2018-12-05T10:10:21.761Z,90.50
2018-12-05T10:12:50.169Z,90.40
2018-12-05T10:15:18.753Z,90.30
2018-12-05T10:17:51.078Z,90.20
2018-12-05T10:20:19.468Z,90.20
2018-12-05T10:22:55.483Z,90.00
2018-12-05T10:25:23.892Z,89.90
2018-12-05T10:27:52.383Z,89.20
2018-12-05T10:30:20.899Z,88.70
2018-12-05T10:32:50.133Z,88.70
2018-12-05T10:35:18.545Z,88.50
2018-12-05T10:37:46.935Z,88.40
2018-12-05T10:40:15.355Z,88.20
2018-12-05T10:42:43.833Z,88.00
2018-12-05T10:45:12.333Z,87.80
2018-12-05T10:47:40.744Z,87.50
2018-12-05T10:50:09.145Z,87.20
2018-12-05T10:52:37.540Z,87.10
2018-12-05T10:55:06.125Z,86.90
2018-12-05T10:57:34.723Z,86.70
2018-12-05T11:00:03.706Z,86.50
2018-12-05T11:02:37.491Z,86.20
2018-12-05T11:12:03.353Z,85.90
2018-12-05T11:14:37.547Z,85.30
2018-12-05T11:17:11.477Z,85.10
2018-12-05T11:19:45.415Z,84.90
2018-12-05T11:22:19.278Z,84.70
2018-12-05T11:24:48.725Z,84.50
2018-12-05T11:27:17.103Z,84.40
2018-12-05T11:29:45.517Z,84.20
2018-12-05T11:32:13.913Z,84.00
2018-12-05T11:34:42.423Z,84.00
2018-12-05T11:37:10.832Z,83.80
2018-12-05T11:39:39.269Z,83.70
2018-12-05T11:42:07.738Z,83.50
2018-12-05T11:44:36.451Z,83.40
2018-12-05T11:47:04.954Z,83.20
2018-12-05T11:49:33.374Z,82.30
2018-12-05T11:52:01.783Z,82.50
2018-12-05T11:54:30.184Z,82.50
2018-12-05T11:56:58.618Z,82.30
2018-12-05T11:59:27.045Z,82.20
2018-12-05T12:01:55.448Z,82.00
2018-12-05T12:04:23.892Z,81.90
2018-12-05T12:06:52.442Z,81.80
2018-12-05T12:09:21.421Z,81.60
2018-12-05T12:11:51.228Z,81.40
2018-12-05T12:14:20.274Z,81.30
2018-12-05T12:16:48.670Z,81.30
2018-12-05T12:19:17.589Z,81.30
2018-12-05T12:21:45.990Z,81.10
2018-12-05T12:24:14.426Z,80.60
2018-12-05T12:26:43.060Z,80.60
2018-12-05T12:29:11.491Z,80.50
2018-12-05T12:31:40.463Z,80.50
2018-12-05T12:34:08.904Z,80.00
2018-12-05T12:36:37.302Z,79.50
2018-12-05T12:39:07.149Z,79.70
2018-12-05T12:41:35.760Z,79.60
2018-12-05T12:44:04.182Z,79.60
2018-12-05T12:46:32.886Z,79.80
2018-12-05T12:49:01.271Z,79.50
2018-12-05T12:51:29.665Z,79.80
2018-12-05T12:53:58.727Z,79.80
2018-12-05T12:56:27.723Z,79.60
2018-12-05T12:58:56.741Z,79.30
2018-12-05T13:01:26.320Z,79.20
2018-12-05T13:03:54.709Z,79.10
2018-12-05T13:06:23.727Z,79.00
2018-12-05T13:08:52.688Z,78.80
2018-12-05T13:11:21.214Z,78.60
2018-12-05T13:13:50.189Z,78.50
2018-12-05T13:16:18.589Z,79.10
2018-12-05T13:18:46.988Z,78.30
2018-12-05T13:21:15.386Z,78.10
2018-12-05T13:23:43.791Z,77.80
2018-12-05T13:26:12.786Z,78.00
2018-12-05T13:28:41.752Z,78.00
2018-12-05T13:31:10.974Z,78.20
2018-12-05T13:33:39.364Z,78.10
2018-12-05T13:36:08.832Z,78.20
2018-12-05T13:38:37.286Z,78.10
2018-12-05T13:41:05.684Z,78.10
2018-12-05T13:43:34.633Z,78.00
2018-12-05T13:46:03.896Z,78.00
2018-12-05T13:48:32.368Z,77.90
2018-12-05T13:51:00.758Z,78.20
2018-12-05T13:53:29.719Z,77.50
2018-12-05T13:55:58.163Z,77.50
2018-12-05T13:58:26.545Z,77.30
2018-12-05T14:00:54.947Z,77.20
2018-12-05T14:03:23.366Z,77.30
2018-12-05T14:05:51.949Z,77.40
2018-12-05T14:08:20.332Z,77.50
2018-12-05T14:10:48.839Z,77.60
2018-12-05T14:13:17.245Z,77.80
2018-12-05T14:15:45.635Z,77.80
2018-12-05T14:18:14.052Z,77.90
2018-12-05T14:20:42.666Z,77.90
2018-12-05T14:23:11.077Z,77.90
2018-12-05T14:25:39.763Z,77.90
2018-12-05T14:28:08.155Z,78.80
2018-12-05T14:30:36.855Z,78.20
2018-12-05T14:33:05.308Z,78.10
2018-12-05T14:35:33.750Z,78.10
2018-12-05T14:38:02.169Z,78.30
2018-12-05T14:40:30.565Z,78.50
2018-12-05T14:42:58.980Z,78.70
2018-12-05T14:45:27.435Z,78.90
2018-12-05T14:47:55.935Z,79.80
2018-12-05T14:50:24.405Z,79.90
2018-12-05T14:52:52.832Z,79.50
2018-12-05T14:55:21.292Z,79.70
2018-12-05T14:57:49.690Z,79.60
2018-12-05T15:00:18.078Z,79.70
2018-12-05T15:02:46.492Z,79.90
2018-12-05T15:05:15.020Z,80.00
2018-12-05T15:07:43.422Z,81.00
2018-12-05T15:10:11.810Z,80.30
2018-12-05T15:12:40.214Z,80.40
2018-12-05T15:15:08.832Z,80.60
2018-12-05T15:17:37.259Z,81.50
2018-12-05T15:20:06.110Z,80.90
2018-12-05T15:22:34.518Z,81.20
2018-12-05T15:25:03.080Z,81.20
2018-12-05T15:27:31.466Z,81.30
2018-12-05T15:29:59.877Z,81.40
2018-12-05T15:32:28.295Z,81.70
2018-12-05T15:34:56.761Z,81.70
2018-12-05T15:37:25.215Z,81.70
2018-12-05T15:39:54.115Z,81.70
2018-12-05T15:42:22.555Z,81.70
2018-12-05T15:44:50.937Z,81.90
2018-12-05T15:47:19.341Z,82.00
2018-12-05T15:49:47.771Z,82.00
2018-12-05T15:52:16.219Z,82.20
2018-12-05T15:54:44.631Z,82.20
2018-12-05T15:57:13.223Z,82.40
2018-12-05T15:59:41.679Z,82.40
2018-12-05T16:02:10.122Z,82.50
2018-12-05T16:04:38.503Z,82.60
2018-12-05T16:07:06.894Z,82.70
2018-12-05T16:09:35.291Z,83.50
2018-12-05T16:12:03.724Z,82.90
2018-12-05T16:14:32.271Z,83.20
2018-12-05T16:17:00.688Z,83.10
2018-12-05T16:19:29.153Z,83.20
2018-12-05T16:21:57.622Z,83.40
2018-12-05T16:24:26.021Z,83.40
2018-12-05T16:26:54.438Z,83.50
2018-12-05T16:29:22.854Z,83.60
2018-12-05T16:31:51.288Z,84.40
2018-12-05T16:34:19.800Z,83.50
2018-12-05T16:36:48.242Z,83.70
2018-12-05T16:39:16.864Z,83.60
2018-12-05T16:41:45.310Z,83.60
2018-12-05T16:44:14.445Z,83.50
2018-12-05T16:46:42.836Z,84.30
2018-12-05T16:49:11.296Z,83.50
2018-12-05T16:51:39.769Z,83.60
2018-12-05T16:54:08.799Z,83.50
2018-12-05T16:56:37.197Z,83.60
2018-12-05T16:59:06.234Z,83.50
2018-12-05T17:01:34.713Z,83.50
2018-12-05T17:04:03.129Z,84.30
2018-12-05T17:06:31.534Z,83.50
2018-12-05T17:09:01.452Z,83.60
2018-12-05T17:11:30.294Z,83.50
2018-12-05T17:13:58.691Z,83.50
2018-12-05T17:16:27.129Z,83.60
2018-12-05T17:18:55.525Z,83.50
2018-12-05T17:21:24.020Z,83.70
2018-12-05T17:23:52.510Z,83.60
2018-12-05T17:26:21.045Z,83.50
2018-12-05T17:28:49.448Z,83.40
2018-12-05T17:31:18.495Z,83.40
2018-12-05T17:33:47.267Z,83.50
2018-12-05T17:36:15.675Z,83.50
2018-12-05T17:38:44.072Z,83.50
2018-12-05T17:41:12.488Z,83.50
2018-12-05T17:43:40.906Z,83.40
2018-12-05T17:46:09.323Z,83.40
2018-12-05T17:48:38.019Z,83.30
2018-12-05T17:51:06.428Z,83.30
2018-12-05T17:53:34.998Z,83.40
2018-12-05T17:56:03.465Z,83.10
2018-12-05T17:58:31.866Z,82.90
2018-12-05T18:01:00.313Z,82.90
2018-12-05T18:03:28.951Z,82.40
2018-12-05T18:05:57.384Z,82.30
2018-12-05T18:08:25.792Z,82.00
2018-12-05T18:10:54.205Z,81.90
2018-12-05T18:13:22.594Z,81.70
2018-12-05T18:15:51.014Z,81.50
2018-12-05T18:18:19.444Z,81.40
2018-12-05T18:20:47.945Z,81.20
2018-12-05T18:23:16.623Z,81.20
2018-12-05T18:25:45.039Z,81.00
2018-12-05T18:28:13.451Z,80.90
2018-12-05T18:30:41.966Z,80.40
2018-12-05T18:33:10.380Z,80.20
2018-12-05T18:35:38.879Z,79.90
2018-12-05T18:38:07.285Z,80.00
2018-12-05T18:40:35.711Z,79.90
2018-12-05T18:43:04.207Z,79.60
2018-12-05T18:45:32.666Z,79.50
2018-12-05T18:48:01.116Z,79.50
2018-12-05T18:50:29.756Z,79.20
2018-12-05T18:52:58.238Z,79.00
2018-12-05T18:55:26.642Z,79.00
2018-12-05T18:57:55.063Z,78.90
2018-12-05T19:00:23.746Z,78.50
2018-12-05T19:02:52.211Z,78.10
2018-12-05T19:05:20.669Z,78.00
2018-12-05T19:07:49.125Z,77.40
2018-12-05T19:10:17.536Z,77.80
2018-12-05T19:12:45.935Z,78.60
2018-12-05T19:15:14.432Z,77.30
2018-12-05T19:17:42.828Z,76.80
2018-12-05T19:20:11.240Z,76.50
2018-12-05T19:22:39.675Z,76.40
2018-12-05T19:25:08.163Z,76.30
2018-12-05T19:27:36.546Z,76.20
2018-12-05T19:30:07.183Z,76.40
2018-12-05T19:32:35.646Z,76.20
2018-12-05T19:35:04.645Z,76.20
2018-12-05T19:37:33.126Z,76.00
2018-12-05T19:40:01.606Z,76.00
2018-12-05T19:42:30.110Z,76.10
2018-12-05T19:44:58.577Z,76.10
2018-12-05T19:47:27.011Z,75.40
2018-12-05T19:49:55.428Z,75.50
2018-12-05T19:52:23.913Z,75.50
2018-12-05T19:54:52.399Z,75.30
2018-12-05T19:57:20.869Z,75.20
2018-12-05T19:59:49.271Z,75.40
2018-12-05T20:02:17.668Z,74.90
2018-12-05T20:04:46.380Z,74.60
2018-12-05T20:07:16.107Z,74.40
2018-12-05T20:09:44.864Z,74.40
2018-12-05T20:12:13.267Z,73.90
2018-12-05T20:14:41.687Z,73.70
2018-12-05T20:17:10.136Z,74.60
2018-12-05T20:19:38.619Z,73.80
2018-12-05T20:22:07.461Z,72.50
2018-12-05T20:24:35.980Z,72.50
2018-12-05T20:27:04.480Z,72.40
2018-12-05T20:29:32.884Z,72.40
2018-12-05T20:32:01.307Z,72.50
2018-12-05T20:34:29.753Z,72.60
2018-12-05T20:36:58.344Z,72.70
2018-12-05T20:39:26.772Z,72.90
2018-12-05T20:41:59.296Z,72.70
2018-12-05T20:44:27.714Z,73.60
2018-12-05T20:46:56.156Z,73.00
2018-12-05T20:49:24.554Z,72.70
2018-12-05T20:51:53.053Z,72.70
2018-12-05T20:54:21.479Z,72.90
2018-12-05T20:56:49.866Z,72.80
2018-12-05T20:59:18.320Z,73.00
2018-12-05T21:01:46.770Z,73.20
2018-12-05T21:04:15.195Z,73.00
2018-12-05T21:06:43.596Z,73.10
2018-12-05T21:09:12.029Z,73.10
2018-12-05T21:11:40.461Z,72.80
2018-12-05T21:14:09.131Z,72.90
2018-12-05T21:16:37.718Z,72.40
2018-12-05T21:19:06.108Z,72.20
2018-12-05T21:21:34.532Z,71.90
2018-12-05T21:24:03.051Z,71.90
2018-12-05T21:26:31.495Z,72.00
2018-12-05T21:29:00.216Z,72.50
2018-12-05T21:31:28.678Z,72.40
2018-12-05T21:33:57.161Z,72.40
2018-12-05T21:36:25.641Z,72.00
2018-12-05T21:38:54.043Z,72.00
2018-12-05T21:41:22.441Z,72.20
2018-12-05T21:43:50.851Z,72.20
2018-12-05T21:46:19.269Z,72.20
2018-12-05T21:49:20.883Z,72.40
2018-12-05T21:51:49.270Z,72.40
2018-12-05T21:54:17.690Z,72.40
2018-12-05T21:56:46.151Z,72.50
2018-12-05T21:59:14.660Z,72.60
2018-12-05T22:01:43.113Z,72.40
2018-12-05T22:04:11.526Z,72.50
2018-12-05T22:06:39.941Z,72.50
2018-12-05T22:09:09.922Z,72.40
2018-12-05T22:11:38.325Z,72.30
2018-12-05T22:14:07.361Z,72.50
2018-12-05T22:16:35.979Z,72.90
2018-12-05T22:19:04.533Z,73.70
2018-12-05T22:21:33.009Z,72.50
2018-12-05T22:24:01.423Z,72.50
2018-12-05T22:26:29.824Z,72.70
2018-12-05T22:28:58.230Z,72.50
2018-12-05T22:31:26.618Z,72.70
2018-12-05T22:33:55.297Z,72.70
2018-12-05T22:36:23.686Z,72.60
2018-12-05T22:38:52.282Z,72.70
2018-12-05T22:41:20.730Z,72.60
2018-12-05T22:43:49.151Z,72.80
2018-12-05T22:46:17.618Z,73.00
2018-12-05T22:48:46.034Z,72.70
2018-12-05T22:51:14.439Z,72.70
2018-12-05T22:53:42.840Z,72.60
2018-12-05T22:56:11.267Z,72.40
2018-12-05T22:58:39.716Z,72.50
2018-12-05T23:01:08.392Z,73.30
2018-12-05T23:03:36.822Z,72.40
2018-12-05T23:06:05.565Z,72.40
2018-12-05T23:08:33.986Z,72.40
2018-12-05T23:11:02.382Z,72.40
2018-12-05T23:13:30.874Z,72.10
2018-12-05T23:15:59.285Z,71.80
2018-12-05T23:18:27.682Z,71.90
2018-12-05T23:20:56.101Z,71.30
2018-12-05T23:23:24.614Z,71.40
2018-12-05T23:25:53.021Z,71.50
2018-12-05T23:28:21.493Z,71.70
2018-12-05T23:30:49.997Z,71.60
2018-12-05T23:33:18.387Z,71.50
2018-12-05T23:35:46.820Z,71.70
2018-12-05T23:38:15.317Z,71.50
2018-12-05T23:40:43.718Z,71.50
2018-12-05T23:43:12.175Z,71.70
2018-12-05T23:45:40.577Z,71.60
2018-12-05T23:48:08.964Z,71.60
2018-12-05T23:50:37.411Z,71.00
2018-12-05T23:53:05.882Z,71.50
2018-12-05T23:55:34.277Z,71.70
2018-12-05T23:58:03.372Z,72.30
